Current Conditions
Nebelige
Bedingungen




Pressure
1027.92 (hPa) - 30.35 (inHG)
Visibility

1.0 (km) - 0.6 (miles)
   Temperature
1  °C
34°F
0  °C
Dewpoint
93  %
 Humidity
   Wind Speed
19  km/h
10  kts
12  mph
5.4  m/s
   Wind Direction
 120°
East South
East
   Airport Data
LOWW
Location Vienna International Airport 36 km (22.37 mi)
Metar :LOWW 241420Z 12010KT 1200 R16/1400N BCFG BR FEW001 BKN002 01/00 Q1028 BECMG BKN001 TEMPO 0700 FG
Tue 24th November 15:20 pm
   Raw Metar Info
Raw METAR is the most common format in the world for the transmission of observational weather data. It is highly standardized through the International Civil Aviation Organization (ICAO), which allows it to be understood throughout most of the world.
   API Info
Data Provided by
https://www.checkwx.com/weather/LOWW
   © Info
CSS/SVG/PHP scripts were developed by weather34.com for use in the weather34 template © 2015-2020

Guide Info provided by Metar-Wikipedia